sensor_id;sensor_type;location;lat;lon;timestamp;pressure;altitude;pressure_sealevel;temperature;humidity
25722;BME280;13578;53.450;15.496;2022-08-02T00:01:09;100041.91;;;16.31;100.00
25722;BME280;13578;53.450;15.496;2022-08-02T00:04:10;100034.31;;;16.33;100.00
25722;BME280;13578;53.450;15.496;2022-08-02T00:07:11;100032.03;;;16.29;100.00
25722;BME280;13578;53.450;15.496;2022-08-02T00:10:11;100028.75;;;16.33;100.00
25722;BME280;13578;53.450;15.496;2022-08-02T00:13:12;100026.88;;;16.26;100.00
25722;BME280;13578;53.450;15.496;2022-08-02T00:16:13;100018.19;;;16.29;100.00
25722;BME280;13578;53.450;15.496;2022-08-02T00:19:13;100021.50;;;16.32;100.00
25722;BME280;13578;53.450;15.496;2022-08-02T00:22:14;100017.69;;;16.33;100.00
25722;BME280;13578;53.450;15.496;2022-08-02T00:25:15;100015.25;;;16.22;100.00
25722;BME280;13578;53.450;15.496;2022-08-02T00:28:15;100023.53;;;16.14;100.00
25722;BME280;13578;53.450;15.496;2022-08-02T00:31:16;100014.84;;;16.09;100.00
25722;BME280;13578;53.450;15.496;2022-08-02T00:34:17;100026.81;;;16.09;100.00
25722;BME280;13578;53.450;15.496;2022-08-02T00:37:18;100014.88;;;16.00;100.00
25722;BME280;13578;53.450;15.496;2022-08-02T00:40:21;100028.28;;;15.87;100.00
25722;BME280;13578;53.450;15.496;2022-08-02T00:43:22;100032.03;;;15.78;100.00
25722;BME280;13578;53.450;15.496;2022-08-02T00:46:23;100030.81;;;15.72;100.00
25722;BME280;13578;53.450;15.496;2022-08-02T00:49:24;100033.88;;;15.69;100.00
25722;BME280;13578;53.450;15.496;2022-08-02T00:52:24;100038.53;;;15.60;100.00
25722;BME280;13578;53.450;15.496;2022-08-02T00:55:25;100039.19;;;15.54;100.00
25722;BME280;13578;53.450;15.496;2022-08-02T00:58:26;100051.78;;;15.48;100.00
25722;BME280;13578;53.450;15.496;2022-08-02T01:01:27;100047.06;;;15.40;100.00
25722;BME280;13578;53.450;15.496;2022-08-02T01:04:40;100059.16;;;15.39;100.00
25722;BME280;13578;53.450;15.496;2022-08-02T01:07:41;100061.03;;;15.31;100.00
25722;BME280;13578;53.450;15.496;2022-08-02T01:10:42;100064.25;;;15.26;100.00
25722;BME280;13578;53.450;15.496;2022-08-02T01:13:43;100070.44;;;15.20;100.00
25722;BME280;13578;53.450;15.496;2022-08-02T01:17:01;100057.09;;;15.15;100.00
25722;BME280;13578;53.450;15.496;2022-08-02T01:27:17;100067.78;;;14.92;100.00
25722;BME280;13578;53.450;15.496;2022-08-02T01:30:26;100071.44;;;14.92;100.00
25722;BME280;13578;53.450;15.496;2022-08-02T01:33:35;100067.50;;;14.95;100.00
25722;BME280;13578;53.450;15.496;2022-08-02T01:36:43;100064.19;;;14.91;100.00
25722;BME280;13578;53.450;15.496;2022-08-02T01:39:53;100064.91;;;14.93;100.00
25722;BME280;13578;53.450;15.496;2022-08-02T01:42:56;100062.28;;;14.92;100.00
25722;BME280;13578;53.450;15.496;2022-08-02T01:45:59;100070.41;;;14.93;100.00
25722;BME280;13578;53.450;15.496;2022-08-02T01:49:03;100074.41;;;14.99;100.00
25722;BME280;13578;53.450;15.496;2022-08-02T01:52:06;100065.66;;;15.04;100.00
25722;BME280;13578;53.450;15.496;2022-08-02T01:55:23;100065.47;;;15.05;100.00
25722;BME280;13578;53.450;15.496;2022-08-02T01:58:30;100060.78;;;14.98;100.00
25722;BME280;13578;53.450;15.496;2022-08-02T02:01:34;100066.06;;;14.91;100.00
25722;BME280;13578;53.450;15.496;2022-08-02T02:04:36;100072.47;;;14.91;100.00
25722;BME280;13578;53.450;15.496;2022-08-02T02:07:38;100064.97;;;14.84;100.00
25722;BME280;13578;53.450;15.496;2022-08-02T02:10:41;100066.78;;;14.75;100.00
25722;BME280;13578;53.450;15.496;2022-08-02T02:13:44;100068.69;;;14.56;100.00
25722;BME280;13578;53.450;15.496;2022-08-02T02:16:47;100071.44;;;14.56;100.00
25722;BME280;13578;53.450;15.496;2022-08-02T02:19:50;100075.69;;;14.51;100.00
25722;BME280;13578;53.450;15.496;2022-08-02T02:22:52;100073.66;;;14.53;100.00
25722;BME280;13578;53.450;15.496;2022-08-02T02:25:54;100063.16;;;14.38;100.00
25722;BME280;13578;53.450;15.496;2022-08-02T02:28:58;100069.13;;;14.34;100.00
25722;BME280;13578;53.450;15.496;2022-08-02T02:32:00;100063.06;;;14.30;100.00
25722;BME280;13578;53.450;15.496;2022-08-02T02:35:06;100068.31;;;14.23;100.00
25722;BME280;13578;53.450;15.496;2022-08-02T02:38:10;100074.00;;;14.22;100.00
25722;BME280;13578;53.450;15.496;2022-08-02T02:41:12;100066.97;;;14.09;100.00
25722;BME280;13578;53.450;15.496;2022-08-02T02:44:18;100064.06;;;14.11;100.00
25722;BME280;13578;53.450;15.496;2022-08-02T02:47:21;100062.47;;;13.80;100.00
25722;BME280;13578;53.450;15.496;2022-08-02T02:50:22;100066.63;;;13.94;100.00
25722;BME280;13578;53.450;15.496;2022-08-02T02:53:23;100059.06;;;13.96;100.00
25722;BME280;13578;53.450;15.496;2022-08-02T02:56:25;100050.97;;;13.85;100.00
25722;BME280;13578;53.450;15.496;2022-08-02T02:59:26;100064.44;;;13.70;100.00
25722;BME280;13578;53.450;15.496;2022-08-02T03:02:27;100061.97;;;13.67;100.00
25722;BME280;13578;53.450;15.496;2022-08-02T03:05:28;100066.72;;;13.75;100.00
25722;BME280;13578;53.450;15.496;2022-08-02T03:08:29;100069.13;;;13.88;100.00
25722;BME280;13578;53.450;15.496;2022-08-02T03:11:29;100081.78;;;13.80;100.00
25722;BME280;13578;53.450;15.496;2022-08-02T03:14:30;100087.22;;;13.62;100.00
25722;BME280;13578;53.450;15.496;2022-08-02T03:17:44;100077.09;;;13.63;100.00
25722;BME280;13578;53.450;15.496;2022-08-02T03:20:44;100076.06;;;13.64;100.00
25722;BME280;13578;53.450;15.496;2022-08-02T03:23:45;100079.69;;;13.64;100.00
25722;BME280;13578;53.450;15.496;2022-08-02T03:26:46;100078.72;;;13.56;100.00
25722;BME280;13578;53.450;15.496;2022-08-02T03:29:47;100076.28;;;13.43;100.00
25722;BME280;13578;53.450;15.496;2022-08-02T03:32:48;100078.88;;;13.34;100.00
25722;BME280;13578;53.450;15.496;2022-08-02T03:35:50;100080.63;;;13.45;100.00
25722;BME280;13578;53.450;15.496;2022-08-02T03:38:52;100076.75;;;13.66;100.00
25722;BME280;13578;53.450;15.496;2022-08-02T03:41:54;100082.00;;;13.69;100.00
25722;BME280;13578;53.450;15.496;2022-08-02T03:44:55;100085.09;;;13.84;100.00
25722;BME280;13578;53.450;15.496;2022-08-02T03:47:58;100101.28;;;14.25;100.00
25722;BME280;13578;53.450;15.496;2022-08-02T03:51:00;100087.72;;;14.77;100.00
25722;BME280;13578;53.450;15.496;2022-08-02T03:54:02;100090.81;;;15.19;100.00
25722;BME280;13578;53.450;15.496;2022-08-02T03:57:05;100088.88;;;15.37;100.00
25722;BME280;13578;53.450;15.496;2022-08-02T04:00:11;100097.75;;;15.49;100.00
25722;BME280;13578;53.450;15.496;2022-08-02T04:03:15;100093.72;;;15.70;100.00
25722;BME280;13578;53.450;15.496;2022-08-02T04:06:15;100093.94;;;16.03;100.00
25722;BME280;13578;53.450;15.496;2022-08-02T04:09:16;100102.84;;;16.31;100.00
25722;BME280;13578;53.450;15.496;2022-08-02T04:12:16;100099.38;;;16.38;100.00
25722;BME280;13578;53.450;15.496;2022-08-02T04:15:17;100099.44;;;16.62;100.00
25722;BME280;13578;53.450;15.496;2022-08-02T04:18:21;100104.31;;;16.68;100.00
25722;BME280;13578;53.450;15.496;2022-08-02T04:21:30;100103.25;;;16.70;100.00
25722;BME280;13578;53.450;15.496;2022-08-02T04:24:40;100109.53;;;16.88;100.00
25722;BME280;13578;53.450;15.496;2022-08-02T04:27:44;100110.25;;;16.98;100.00
25722;BME280;13578;53.450;15.496;2022-08-02T04:30:47;100104.16;;;16.87;100.00
25722;BME280;13578;53.450;15.496;2022-08-02T04:33:49;100114.53;;;16.68;100.00
25722;BME280;13578;53.450;15.496;2022-08-02T04:36:50;100114.28;;;16.45;100.00
25722;BME280;13578;53.450;15.496;2022-08-02T04:39:51;100119.66;;;16.38;100.00
25722;BME280;13578;53.450;15.496;2022-08-02T04:42:52;100120.88;;;16.35;100.00
25722;BME280;13578;53.450;15.496;2022-08-02T04:45:53;100120.66;;;16.29;100.00
25722;BME280;13578;53.450;15.496;2022-08-02T04:48:54;100123.59;;;16.27;100.00
25722;BME280;13578;53.450;15.496;2022-08-02T04:51:55;100127.94;;;16.30;100.00
25722;BME280;13578;53.450;15.496;2022-08-02T04:54:55;100124.09;;;16.23;100.00
25722;BME280;13578;53.450;15.496;2022-08-02T04:57:57;100131.19;;;16.25;100.00
25722;BME280;13578;53.450;15.496;2022-08-02T05:00:58;100132.44;;;16.31;100.00
25722;BME280;13578;53.450;15.496;2022-08-02T05:03:58;100132.94;;;16.26;100.00
25722;BME280;13578;53.450;15.496;2022-08-02T05:06:59;100130.38;;;16.33;100.00
25722;BME280;13578;53.450;15.496;2022-08-02T05:10:00;100136.81;;;16.50;100.00
25722;BME280;13578;53.450;15.496;2022-08-02T05:13:03;100137.91;;;16.65;100.00
25722;BME280;13578;53.450;15.496;2022-08-02T05:16:04;100129.91;;;16.62;100.00
25722;BME280;13578;53.450;15.496;2022-08-02T05:19:04;100136.47;;;16.53;100.00
25722;BME280;13578;53.450;15.496;2022-08-02T05:22:05;100134.66;;;16.19;100.00
25722;BME280;13578;53.450;15.496;2022-08-02T05:25:06;100135.34;;;16.21;100.00
25722;BME280;13578;53.450;15.496;2022-08-02T05:28:07;100135.56;;;16.36;100.00
25722;BME280;13578;53.450;15.496;2022-08-02T05:31:07;100139.88;;;16.30;100.00
25722;BME280;13578;53.450;15.496;2022-08-02T05:34:08;100143.34;;;16.32;100.00
25722;BME280;13578;53.450;15.496;2022-08-02T05:37:09;100152.44;;;16.67;100.00
25722;BME280;13578;53.450;15.496;2022-08-02T05:40:09;100155.25;;;16.84;100.00
25722;BME280;13578;53.450;15.496;2022-08-02T05:43:14;100159.44;;;16.88;100.00
25722;BME280;13578;53.450;15.496;2022-08-02T05:46:15;100159.22;;;16.81;100.00
25722;BME280;13578;53.450;15.496;2022-08-02T05:49:15;100170.38;;;16.98;100.00
25722;BME280;13578;53.450;15.496;2022-08-02T05:52:18;100172.97;;;16.99;100.00
25722;BME280;13578;53.450;15.496;2022-08-02T05:55:41;100186.84;;;16.99;100.00
25722;BME280;13578;53.450;15.496;2022-08-02T05:59:03;100198.44;;;16.95;100.00
25722;BME280;13578;53.450;15.496;2022-08-02T06:02:58;100185.31;;;17.05;100.00
25722;BME280;13578;53.450;15.496;2022-08-02T06:05:40;100172.47;;;17.12;100.00
25722;BME280;13578;53.450;15.496;2022-08-02T06:08:50;100183.06;;;17.17;100.00
25722;BME280;13578;53.450;15.496;2022-08-02T06:11:51;100183.56;;;17.04;100.00
25722;BME280;13578;53.450;15.496;2022-08-02T06:14:53;100184.97;;;17.25;100.00
25722;BME280;13578;53.450;15.496;2022-08-02T06:17:54;100186.84;;;17.41;100.00
25722;BME280;13578;53.450;15.496;2022-08-02T06:20:59;100204.72;;;17.71;100.00
25722;BME280;13578;53.450;15.496;2022-08-02T06:24:01;100203.84;;;17.71;100.00
25722;BME280;13578;53.450;15.496;2022-08-02T06:27:02;100193.63;;;17.71;100.00
25722;BME280;13578;53.450;15.496;2022-08-02T06:30:05;100190.84;;;17.80;100.00
25722;BME280;13578;53.450;15.496;2022-08-02T06:33:06;100204.53;;;17.98;100.00
25722;BME280;13578;53.450;15.496;2022-08-02T06:36:18;100202.81;;;17.97;100.00
25722;BME280;13578;53.450;15.496;2022-08-02T06:39:31;100205.88;;;18.18;100.00
25722;BME280;13578;53.450;15.496;2022-08-02T06:42:51;100200.59;;;18.32;100.00
25722;BME280;13578;53.450;15.496;2022-08-02T06:45:55;100203.03;;;18.35;100.00
25722;BME280;13578;53.450;15.496;2022-08-02T06:48:56;100190.81;;;18.44;100.00
25722;BME280;13578;53.450;15.496;2022-08-02T06:51:57;100196.47;;;18.67;100.00
25722;BME280;13578;53.450;15.496;2022-08-02T06:54:59;100192.03;;;18.81;100.00
25722;BME280;13578;53.450;15.496;2022-08-02T06:58:00;100189.63;;;18.78;100.00
25722;BME280;13578;53.450;15.496;2022-08-02T07:01:03;100188.88;;;18.84;100.00
25722;BME280;13578;53.450;15.496;2022-08-02T07:04:06;100186.94;;;18.93;100.00
25722;BME280;13578;53.450;15.496;2022-08-02T07:07:07;100188.69;;;18.94;100.00
25722;BME280;13578;53.450;15.496;2022-08-02T07:10:07;100193.94;;;19.12;100.00
25722;BME280;13578;53.450;15.496;2022-08-02T07:13:08;100194.31;;;19.09;100.00
25722;BME280;13578;53.450;15.496;2022-08-02T07:16:09;100193.38;;;19.40;100.00
25722;BME280;13578;53.450;15.496;2022-08-02T07:19:10;100196.44;;;19.68;100.00
25722;BME280;13578;53.450;15.496;2022-08-02T07:22:10;100197.47;;;19.91;100.00
25722;BME280;13578;53.450;15.496;2022-08-02T07:25:12;100198.34;;;20.06;100.00
25722;BME280;13578;53.450;15.496;2022-08-02T07:28:13;100191.44;;;19.64;100.00
25722;BME280;13578;53.450;15.496;2022-08-02T07:31:17;100196.47;;;19.83;100.00
25722;BME280;13578;53.450;15.496;2022-08-02T07:34:18;100197.88;;;20.03;100.00
25722;BME280;13578;53.450;15.496;2022-08-02T07:37:21;100192.00;;;20.12;100.00
25722;BME280;13578;53.450;15.496;2022-08-02T07:40:22;100184.31;;;19.84;97.17
25722;BME280;13578;53.450;15.496;2022-08-02T07:43:23;100194.84;;;19.74;80.87
25722;BME280;13578;53.450;15.496;2022-08-02T07:46:24;100188.75;;;19.94;94.58
25722;BME280;13578;53.450;15.496;2022-08-02T07:49:25;100196.34;;;20.15;100.00
25722;BME280;13578;53.450;15.496;2022-08-02T07:52:25;100199.97;;;20.30;100.00
25722;BME280;13578;53.450;15.496;2022-08-02T07:55:26;100187.31;;;20.43;100.00
25722;BME280;13578;53.450;15.496;2022-08-02T07:58:26;100189.28;;;20.64;100.00
25722;BME280;13578;53.450;15.496;2022-08-02T08:01:27;100199.19;;;20.67;98.31
25722;BME280;13578;53.450;15.496;2022-08-02T08:04:28;100197.84;;;20.62;100.00
25722;BME280;13578;53.450;15.496;2022-08-02T08:07:28;100197.38;;;20.59;99.24
25722;BME280;13578;53.450;15.496;2022-08-02T08:10:29;100185.94;;;20.54;93.63
25722;BME280;13578;53.450;15.496;2022-08-02T08:13:29;100199.00;;;20.53;100.00
25722;BME280;13578;53.450;15.496;2022-08-02T08:16:30;100189.53;;;20.47;97.73
25722;BME280;13578;53.450;15.496;2022-08-02T08:19:31;100190.38;;;20.63;96.85
25722;BME280;13578;53.450;15.496;2022-08-02T08:22:32;100189.38;;;20.71;94.17
25722;BME280;13578;53.450;15.496;2022-08-02T08:25:33;100185.72;;;20.70;100.00
25722;BME280;13578;53.450;15.496;2022-08-02T08:28:33;100190.44;;;20.85;99.88
25722;BME280;13578;53.450;15.496;2022-08-02T08:31:35;100196.31;;;21.12;96.31
25722;BME280;13578;53.450;15.496;2022-08-02T08:34:36;100192.94;;;21.16;100.00
25722;BME280;13578;53.450;15.496;2022-08-02T08:37:37;100190.75;;;20.97;95.83
25722;BME280;13578;53.450;15.496;2022-08-02T08:40:38;100188.63;;;20.77;97.19
25722;BME280;13578;53.450;15.496;2022-08-02T08:43:41;100184.28;;;21.11;98.85
25722;BME280;13578;53.450;15.496;2022-08-02T08:46:43;100180.09;;;21.44;100.00
25722;BME280;13578;53.450;15.496;2022-08-02T08:49:50;100175.84;;;21.69;96.60
25722;BME280;13578;53.450;15.496;2022-08-02T08:53:04;100181.09;;;21.57;91.64
25722;BME280;13578;53.450;15.496;2022-08-02T08:56:05;100171.06;;;21.20;89.19
25722;BME280;13578;53.450;15.496;2022-08-02T08:59:05;100177.72;;;21.40;88.00
25722;BME280;13578;53.450;15.496;2022-08-02T09:02:06;100173.91;;;21.70;95.68
25722;BME280;13578;53.450;15.496;2022-08-02T09:05:11;100185.34;;;21.75;87.97
25722;BME280;13578;53.450;15.496;2022-08-02T09:08:12;100185.03;;;21.63;92.27
25722;BME280;13578;53.450;15.496;2022-08-02T09:11:15;100188.31;;;21.52;92.85
25722;BME280;13578;53.450;15.496;2022-08-02T09:14:28;100182.63;;;21.60;98.46
25722;BME280;13578;53.450;15.496;2022-08-02T09:17:31;100190.47;;;21.71;99.19
25722;BME280;13578;53.450;15.496;2022-08-02T09:20:33;100199.22;;;21.47;97.00
25722;BME280;13578;53.450;15.496;2022-08-02T09:23:39;100197.00;;;21.57;100.00
25722;BME280;13578;53.450;15.496;2022-08-02T09:26:40;100201.88;;;21.55;98.25
25722;BME280;13578;53.450;15.496;2022-08-02T09:29:46;100193.13;;;21.80;100.00
25722;BME280;13578;53.450;15.496;2022-08-02T09:32:47;100194.06;;;21.94;95.43
25722;BME280;13578;53.450;15.496;2022-08-02T09:36:18;100187.94;;;21.77;92.69
25722;BME280;13578;53.450;15.496;2022-08-02T09:39:18;100182.13;;;22.07;96.71
25722;BME280;13578;53.450;15.496;2022-08-02T09:42:19;100173.44;;;22.30;97.42
25722;BME280;13578;53.450;15.496;2022-08-02T09:45:19;100171.69;;;22.22;98.43
25722;BME280;13578;53.450;15.496;2022-08-02T09:48:20;100182.72;;;22.30;94.16
25722;BME280;13578;53.450;15.496;2022-08-02T09:51:26;100174.31;;;22.30;93.07
25722;BME280;13578;53.450;15.496;2022-08-02T09:54:28;100185.00;;;22.55;97.24
25722;BME280;13578;53.450;15.496;2022-08-02T09:57:29;100170.47;;;22.38;90.01
25722;BME280;13578;53.450;15.496;2022-08-02T10:00:32;100177.72;;;22.54;94.44
25722;BME280;13578;53.450;15.496;2022-08-02T10:03:33;100167.41;;;22.61;90.37
25722;BME280;13578;53.450;15.496;2022-08-02T10:06:34;100175.09;;;22.46;90.99
25722;BME280;13578;53.450;15.496;2022-08-02T10:09:34;100174.66;;;22.14;94.91
25722;BME280;13578;53.450;15.496;2022-08-02T10:12:35;100169.13;;;22.27;96.08
25722;BME280;13578;53.450;15.496;2022-08-02T10:15:37;100177.03;;;22.52;95.43
25722;BME280;13578;53.450;15.496;2022-08-02T10:18:37;100168.97;;;22.84;92.33
25722;BME280;13578;53.450;15.496;2022-08-02T10:22:00;100170.28;;;22.88;89.09
25722;BME280;13578;53.450;15.496;2022-08-02T10:25:05;100159.34;;;23.07;90.26
25722;BME280;13578;53.450;15.496;2022-08-02T10:28:08;100162.34;;;22.98;87.86
25722;BME280;13578;53.450;15.496;2022-08-02T10:31:11;100149.22;;;23.06;86.51
25722;BME280;13578;53.450;15.496;2022-08-02T10:34:17;100149.53;;;23.24;86.32
25722;BME280;13578;53.450;15.496;2022-08-02T10:37:19;100147.75;;;23.10;89.67
25722;BME280;13578;53.450;15.496;2022-08-02T10:40:21;100147.31;;;23.06;92.08
25722;BME280;13578;53.450;15.496;2022-08-02T10:43:39;100152.41;;;22.76;85.46
25722;BME280;13578;53.450;15.496;2022-08-02T10:46:39;100141.25;;;22.96;86.81
25722;BME280;13578;53.450;15.496;2022-08-02T10:53:20;100138.22;;;22.91;79.38
25722;BME280;13578;53.450;15.496;2022-08-02T10:56:44;100136.28;;;22.84;83.59
25722;BME280;13578;53.450;15.496;2022-08-02T10:59:46;100108.53;;;23.03;84.91
25722;BME280;13578;53.450;15.496;2022-08-02T11:02:47;100119.59;;;23.18;84.52
25722;BME280;13578;53.450;15.496;2022-08-02T11:06:01;100130.16;;;23.23;80.91
25722;BME280;13578;53.450;15.496;2022-08-02T11:09:24;100135.75;;;23.43;80.47
25722;BME280;13578;53.450;15.496;2022-08-02T11:12:25;100122.19;;;23.53;75.19
25722;BME280;13578;53.450;15.496;2022-08-02T11:15:29;100129.91;;;23.64;74.20
25722;BME280;13578;53.450;15.496;2022-08-02T11:22:09;100137.88;;;23.81;74.24
25722;BME280;13578;53.450;15.496;2022-08-02T11:28:23;100138.75;;;23.75;73.23
25722;BME280;13578;53.450;15.496;2022-08-02T11:31:25;100135.72;;;23.83;74.62
25722;BME280;13578;53.450;15.496;2022-08-02T11:34:26;100137.25;;;23.66;69.66
25722;BME280;13578;53.450;15.496;2022-08-02T11:37:32;100129.28;;;23.76;70.48
25722;BME280;13578;53.450;15.496;2022-08-02T11:40:38;100127.09;;;23.85;66.75
25722;BME280;13578;53.450;15.496;2022-08-02T11:43:38;100134.44;;;23.99;64.37
25722;BME280;13578;53.450;15.496;2022-08-02T11:46:39;100136.78;;;24.09;65.33
25722;BME280;13578;53.450;15.496;2022-08-02T11:49:40;100131.19;;;23.95;65.91
25722;BME280;13578;53.450;15.496;2022-08-02T11:52:42;100123.03;;;24.01;65.16
25722;BME280;13578;53.450;15.496;2022-08-02T11:55:43;100113.50;;;24.08;68.22
25722;BME280;13578;53.450;15.496;2022-08-02T11:59:06;100111.09;;;24.19;68.40
25722;BME280;13578;53.450;15.496;2022-08-02T12:02:08;100101.69;;;24.00;64.66
25722;BME280;13578;53.450;15.496;2022-08-02T12:05:16;100107.69;;;24.03;65.86
25722;BME280;13578;53.450;15.496;2022-08-02T12:08:17;100108.97;;;23.87;66.72
25722;BME280;13578;53.450;15.496;2022-08-02T12:11:18;100103.41;;;23.94;67.44
25722;BME280;13578;53.450;15.496;2022-08-02T12:14:19;100116.50;;;24.20;65.26
25722;BME280;13578;53.450;15.496;2022-08-02T12:17:26;100113.56;;;24.47;69.24
25722;BME280;13578;53.450;15.496;2022-08-02T12:20:45;100099.28;;;24.55;65.55
25722;BME280;13578;53.450;15.496;2022-08-02T12:23:46;100099.19;;;24.23;67.07
25722;BME280;13578;53.450;15.496;2022-08-02T12:26:47;100099.34;;;24.42;68.55
25722;BME280;13578;53.450;15.496;2022-08-02T12:29:57;100084.59;;;24.67;65.38
25722;BME280;13578;53.450;15.496;2022-08-02T12:33:08;100097.41;;;24.88;66.98
25722;BME280;13578;53.450;15.496;2022-08-02T12:36:22;100098.22;;;24.95;62.57
25722;BME280;13578;53.450;15.496;2022-08-02T12:42:46;100098.16;;;24.70;64.79
25722;BME280;13578;53.450;15.496;2022-08-02T12:45:50;100096.47;;;25.01;67.04
25722;BME280;13578;53.450;15.496;2022-08-02T12:48:52;100097.31;;;25.01;62.46
25722;BME280;13578;53.450;15.496;2022-08-02T12:51:53;100089.22;;;25.18;64.22
25722;BME280;13578;53.450;15.496;2022-08-02T12:54:53;100087.63;;;25.29;62.63
25722;BME280;13578;53.450;15.496;2022-08-02T12:58:01;100095.16;;;25.61;66.96
25722;BME280;13578;53.450;15.496;2022-08-02T13:01:03;100097.31;;;25.59;62.37
25722;BME280;13578;53.450;15.496;2022-08-02T13:04:04;100102.94;;;25.59;62.28
25722;BME280;13578;53.450;15.496;2022-08-02T13:07:05;100099.34;;;25.51;60.85
25722;BME280;13578;53.450;15.496;2022-08-02T13:10:06;100087.63;;;25.29;60.06
25722;BME280;13578;53.450;15.496;2022-08-02T13:13:06;100089.03;;;25.45;61.64
25722;BME280;13578;53.450;15.496;2022-08-02T13:16:10;100089.13;;;25.57;59.20
25722;BME280;13578;53.450;15.496;2022-08-02T13:19:12;100085.16;;;25.65;61.13
25722;BME280;13578;53.450;15.496;2022-08-02T13:22:14;100079.19;;;25.80;61.88
25722;BME280;13578;53.450;15.496;2022-08-02T13:25:15;100072.88;;;25.84;59.24
25722;BME280;13578;53.450;15.496;2022-08-02T13:28:16;100071.31;;;25.89;58.87
25722;BME280;13578;53.450;15.496;2022-08-02T13:31:17;100065.34;;;25.60;57.25
25722;BME280;13578;53.450;15.496;2022-08-02T13:34:17;100064.84;;;25.44;59.87
25722;BME280;13578;53.450;15.496;2022-08-02T13:37:18;100066.06;;;25.48;56.17
25722;BME280;13578;53.450;15.496;2022-08-02T13:40:19;100067.34;;;25.27;55.00
25722;BME280;13578;53.450;15.496;2022-08-02T13:43:19;100058.66;;;25.03;54.47
25722;BME280;13578;53.450;15.496;2022-08-02T13:46:20;100063.47;;;25.21;56.45
25722;BME280;13578;53.450;15.496;2022-08-02T13:49:21;100060.44;;;25.23;55.56
25722;BME280;13578;53.450;15.496;2022-08-02T13:52:21;100049.44;;;25.21;53.40
25722;BME280;13578;53.450;15.496;2022-08-02T13:55:22;100042.19;;;25.39;53.61
25722;BME280;13578;53.450;15.496;2022-08-02T13:58:23;100050.19;;;25.61;53.49
25722;BME280;13578;53.450;15.496;2022-08-02T14:01:27;100053.09;;;25.73;55.50
25722;BME280;13578;53.450;15.496;2022-08-02T14:04:28;100038.38;;;25.77;53.83
25722;BME280;13578;53.450;15.496;2022-08-02T14:07:29;100043.56;;;25.74;52.53
25722;BME280;13578;53.450;15.496;2022-08-02T14:10:30;100040.19;;;25.65;49.67
25722;BME280;13578;53.450;15.496;2022-08-02T14:13:31;100037.47;;;25.58;51.89
25722;BME280;13578;53.450;15.496;2022-08-02T14:16:31;100023.94;;;25.48;50.25
25722;BME280;13578;53.450;15.496;2022-08-02T14:19:32;100037.47;;;25.58;53.16
25722;BME280;13578;53.450;15.496;2022-08-02T14:22:33;100021.41;;;25.65;53.60
25722;BME280;13578;53.450;15.496;2022-08-02T14:25:33;100031.03;;;25.76;51.79
25722;BME280;13578;53.450;15.496;2022-08-02T14:28:37;100021.41;;;25.84;53.04
25722;BME280;13578;53.450;15.496;2022-08-02T14:31:38;100028.19;;;25.95;52.79
25722;BME280;13578;53.450;15.496;2022-08-02T14:34:38;100024.31;;;25.77;51.02
25722;BME280;13578;53.450;15.496;2022-08-02T14:37:39;100020.38;;;25.78;51.50
25722;BME280;13578;53.450;15.496;2022-08-02T14:40:40;100025.59;;;25.75;49.77
25722;BME280;13578;53.450;15.496;2022-08-02T14:43:41;100016.28;;;25.81;51.85
25722;BME280;13578;53.450;15.496;2022-08-02T14:47:00;100013.28;;;25.76;53.03
25722;BME280;13578;53.450;15.496;2022-08-02T14:50:00;100001.97;;;25.82;54.11
25722;BME280;13578;53.450;15.496;2022-08-02T14:53:01;100003.06;;;25.81;53.56
25722;BME280;13578;53.450;15.496;2022-08-02T14:56:02;99998.91;;;25.84;53.32
25722;BME280;13578;53.450;15.496;2022-08-02T14:59:03;100003.38;;;25.92;51.79
25722;BME280;13578;53.450;15.496;2022-08-02T15:02:04;99997.44;;;25.81;52.04
25722;BME280;13578;53.450;15.496;2022-08-02T15:05:04;99989.63;;;25.65;52.54
25722;BME280;13578;53.450;15.496;2022-08-02T15:08:05;99984.00;;;25.65;53.82
25722;BME280;13578;53.450;15.496;2022-08-02T15:11:06;99979.19;;;25.53;54.49
25722;BME280;13578;53.450;15.496;2022-08-02T15:14:06;99983.16;;;25.64;54.79
25722;BME280;13578;53.450;15.496;2022-08-02T15:17:08;99975.44;;;25.60;55.76
25722;BME280;13578;53.450;15.496;2022-08-02T15:20:09;99983.06;;;25.71;53.73
25722;BME280;13578;53.450;15.496;2022-08-02T15:23:09;99972.63;;;25.60;54.74
25722;BME280;13578;53.450;15.496;2022-08-02T15:26:10;99983.16;;;25.64;54.01
25722;BME280;13578;53.450;15.496;2022-08-02T15:29:10;99976.53;;;25.59;53.38
25722;BME280;13578;53.450;15.496;2022-08-02T15:32:11;99980.72;;;25.49;54.32
25722;BME280;13578;53.450;15.496;2022-08-02T15:35:12;99984.63;;;25.48;55.28
25722;BME280;13578;53.450;15.496;2022-08-02T15:38:13;99976.91;;;25.44;54.91
25722;BME280;13578;53.450;15.496;2022-08-02T15:41:13;99976.66;;;25.45;53.92
25722;BME280;13578;53.450;15.496;2022-08-02T15:44:14;99976.28;;;25.42;55.65
25722;BME280;13578;53.450;15.496;2022-08-02T15:47:15;99975.09;;;25.49;55.59
25722;BME280;13578;53.450;15.496;2022-08-02T15:50:16;99970.13;;;25.51;55.69
25722;BME280;13578;53.450;15.496;2022-08-02T15:53:17;99978.69;;;25.57;56.11
25722;BME280;13578;53.450;15.496;2022-08-02T15:56:18;99969.81;;;25.60;55.38
25722;BME280;13578;53.450;15.496;2022-08-02T15:59:18;99968.31;;;25.39;55.55